Open Full Screen Window  High Contrast Mode
Wind Gusting 00 knots
08
February 19, 2018 6:41 PM EST
Weather Information
Wind Direction
  210 °
Wind Speed
  08 kt (9 mph)
Wind Gust
  00 kt (0 mph)
Altimeter
30.08 in
Visibility
10 SM
Temperature
20° C
68° F
Dewpoint
13° C
55° F
Humidity
64%
1hr Rain Fall
00.00 in.
24hr Rain Fall
00.08 in.
Sky Condition
Clear
VFR

METAR KI19 192341Z AUTO 21008KT 10SM CLR 20/13 A3008 RMK AO2 T01960128

*Background is not an actual portrayal of the airport.